Time;durP1;ratioP1;P1;durP2;ratioP2;P2;SDS_P1;SDS_P2;PMS_P1;PMS_P2;Temp;Humidity;BMP_temperature;BMP_pressure;BME280_temperature;BME280_humidity;BME280_pressure;Samples;Min_cycle;Max_cycle;Signal;HPM_P1;HPM_P2
2022/08/23 00:01:43;;;;;;;5.30;4.60;;;;;;;;;;5054916;28;20535;-75
2022/08/23 00:04:12;;;;;;;5.13;4.60;;;;;;;;;;5055005;28;20938;-75
2022/08/23 00:06:40;;;;;;;7.90;4.83;;;;;;;;;;5055463;28;20455;-75
2022/08/23 00:09:07;;;;;;;6.40;4.70;;;;;;;;;;5055163;28;20481;-75
2022/08/23 00:11:35;;;;;;;5.20;4.70;;;;;;;;;;5055143;28;20527;-75
2022/08/23 00:14:06;;;;;;;6.80;4.27;;;;;;;;;;5054827;28;20452;-75
2022/08/23 00:16:34;;;;;;;6.60;3.50;;;;;;;;;;5054979;28;20519;-74
2022/08/23 00:19:01;;;;;;;5.67;4.20;;;;;;;;;;5055435;28;20486;-75
2022/08/23 00:21:29;;;;;;;4.90;4.20;;;;;;;;;;5054633;28;20437;-75
2022/08/23 00:23:56;;;;;;;6.50;4.53;;;;;;;;;;5055701;28;20443;-75
2022/08/23 00:26:24;;;;;;;8.83;5.00;;;;;;;;;;5055041;28;20444;-74
2022/08/23 00:28:52;;;;;;;4.87;4.27;;;;;;;;;;5054840;28;20479;-75
2022/08/23 00:31:21;;;;;;;4.70;4.20;;;;;;;;;;5054746;28;20451;-74
2022/08/23 00:33:48;;;;;;;5.23;4.53;;;;;;;;;;5054482;28;20478;-74
2022/08/23 00:36:15;;;;;;;6.43;4.53;;;;;;;;;;5054348;28;20925;-75
2022/08/23 00:38:42;;;;;;;8.87;4.47;;;;;;;;;;5054121;28;20530;-75
2022/08/23 00:41:09;;;;;;;8.30;5.53;;;;;;;;;;5054217;28;20474;-75
2022/08/23 00:49:17;;;;;;;5.20;4.70;;;;;;;;;;5054309;28;20499;-75
2022/08/23 00:51:47;;;;;;;7.83;5.30;;;;;;;;;;5054023;28;20444;-74
2022/08/23 00:54:15;;;;;;;5.90;4.53;;;;;;;;;;5054445;28;20602;-74
2022/08/23 00:56:43;;;;;;;6.90;5.27;;;;;;;;;;5053929;28;20478;-75
2022/08/23 00:59:10;;;;;;;9.20;5.57;;;;;;;;;;5054448;28;20479;-74
2022/08/23 01:01:40;;;;;;;8.83;5.90;;;;;;;;;;5054363;28;20441;-75
2022/08/23 01:04:07;;;;;;;9.87;5.47;;;;;;;;;;5054195;28;20803;-74
2022/08/23 01:06:38;;;;;;;7.57;5.87;;;;;;;;;;5054168;28;20519;-75
2022/08/23 01:09:08;;;;;;;12.40;5.87;;;;;;;;;;5054896;28;20497;-74
2022/08/23 01:11:37;;;;;;;5.60;4.60;;;;;;;;;;5054042;28;20515;-74
2022/08/23 01:14:10;;;;;;;6.63;5.20;;;;;;;;;;5053732;28;20444;-76
2022/08/23 01:16:39;;;;;;;7.73;5.73;;;;;;;;;;5054447;28;20857;-76
2022/08/23 01:19:13;;;;;;;7.57;4.93;;;;;;;;;;5053554;28;20802;-74
2022/08/23 01:21:44;;;;;;;6.20;5.60;;;;;;;;;;5053563;28;20439;-75
2022/08/23 01:24:13;;;;;;;7.73;5.87;;;;;;;;;;5053637;28;20986;-74
2022/08/23 01:26:40;;;;;;;8.23;6.03;;;;;;;;;;5053692;28;20477;-74
2022/08/23 01:29:08;;;;;;;7.10;5.20;;;;;;;;;;5053433;28;20988;-74
2022/08/23 01:31:36;;;;;;;6.50;4.53;;;;;;;;;;5053381;28;20526;-74
2022/08/23 01:34:05;;;;;;;11.47;5.23;;;;;;;;;;5053489;28;20455;-75
2022/08/23 01:36:34;;;;;;;6.67;4.93;;;;;;;;;;5053766;28;20448;-74
2022/08/23 01:39:02;;;;;;;5.80;4.53;;;;;;;;;;5053629;28;20553;-75
2022/08/23 01:41:31;;;;;;;5.63;4.37;;;;;;;;;;5053158;28;20923;-74
2022/08/23 01:43:58;;;;;;;5.10;4.60;;;;;;;;;;5053961;28;20446;-74
2022/08/23 01:46:27;;;;;;;6.23;4.90;;;;;;;;;;5053832;28;20438;-74
2022/08/23 01:48:54;;;;;;;9.73;5.00;;;;;;;;;;5053440;28;20535;-74
2022/08/23 01:51:22;;;;;;;4.93;4.30;;;;;;;;;;5053698;28;20443;-74
2022/08/23 01:53:50;;;;;;;6.47;4.43;;;;;;;;;;5053895;28;20948;-75
2022/08/23 01:56:18;;;;;;;7.23;4.47;;;;;;;;;;5053279;28;20535;-74
2022/08/23 01:58:47;;;;;;;7.20;5.33;;;;;;;;;;5053466;28;20880;-75
2022/08/23 02:01:15;;;;;;;5.60;5.03;;;;;;;;;;5052962;28;20473;-74
2022/08/23 02:03:42;;;;;;;5.63;5.03;;;;;;;;;;5053286;28;20533;-75
2022/08/23 02:06:09;;;;;;;9.80;4.87;;;;;;;;;;5053285;28;20478;-74
2022/08/23 02:11:31;;;;;;;6.03;5.43;;;;;;;;;;5017162;28;20430;-74
2022/08/23 02:14:00;;;;;;;5.27;4.80;;;;;;;;;;5052996;28;20478;-74
2022/08/23 02:16:29;;;;;;;6.50;5.50;;;;;;;;;;5053315;28;21030;-73
2022/08/23 02:18:57;;;;;;;6.57;5.63;;;;;;;;;;5053382;28;20923;-73
2022/08/23 02:21:25;;;;;;;6.00;5.13;;;;;;;;;;5052778;28;20963;-72
2022/08/23 02:23:52;;;;;;;6.87;4.90;;;;;;;;;;5053557;28;20449;-74
2022/08/23 02:26:19;;;;;;;5.53;5.10;;;;;;;;;;5053367;28;20446;-73
2022/08/23 02:28:47;;;;;;;9.73;6.37;;;;;;;;;;5052733;28;20923;-74
2022/08/23 02:31:15;;;;;;;7.50;5.80;;;;;;;;;;5052643;28;21026;-73
2022/08/23 02:33:42;;;;;;;7.30;5.87;;;;;;;;;;5053283;28;20438;-75
2022/08/23 02:36:10;;;;;;;7.23;5.53;;;;;;;;;;5053049;28;20469;-75
2022/08/23 02:38:37;;;;;;;6.53;5.63;;;;;;;;;;5052943;28;20474;-73
2022/08/23 02:41:04;;;;;;;7.47;6.20;;;;;;;;;;5053005;28;20991;-74
2022/08/23 02:43:32;;;;;;;6.90;5.23;;;;;;;;;;5052551;28;20525;-74
2022/08/23 02:46:00;;;;;;;6.43;5.83;;;;;;;;;;5053025;28;20446;-74
2022/08/23 02:48:31;;;;;;;8.40;7.10;;;;;;;;;;5052765;28;20474;-74
2022/08/23 02:50:59;;;;;;;6.97;6.23;;;;;;;;;;5053175;28;20493;-74
2022/08/23 02:53:26;;;;;;;5.80;5.20;;;;;;;;;;5052722;28;20446;-73
2022/08/23 02:55:54;;;;;;;5.97;5.37;;;;;;;;;;5052537;28;20439;-74
2022/08/23 02:58:21;;;;;;;7.17;6.43;;;;;;;;;;5052690;28;20450;-75
2022/08/23 03:00:49;;;;;;;6.00;5.50;;;;;;;;;;5053098;28;20950;-74
2022/08/23 03:03:17;;;;;;;6.17;5.70;;;;;;;;;;5055045;28;20437;-74
2022/08/23 03:05:46;;;;;;;6.53;5.90;;;;;;;;;;5056106;28;20529;-74
2022/08/23 03:08:13;;;;;;;7.80;5.47;;;;;;;;;;5056279;28;20547;-74
2022/08/23 03:10:43;;;;;;;6.10;5.60;;;;;;;;;;5055965;28;20583;-74
2022/08/23 03:13:10;;;;;;;6.60;5.90;;;;;;;;;;5056326;28;20453;-74
2022/08/23 03:15:38;;;;;;;6.90;5.80;;;;;;;;;;5056359;28;20453;-75
2022/08/23 03:18:05;;;;;;;8.30;5.07;;;;;;;;;;5056190;28;20548;-74
2022/08/23 03:20:33;;;;;;;7.90;5.50;;;;;;;;;;5056469;28;20537;-74
2022/08/23 03:23:03;;;;;;;10.97;5.97;;;;;;;;;;5056018;28;20453;-74
2022/08/23 03:25:30;;;;;;;9.13;7.30;;;;;;;;;;5056086;28;20533;-75
2022/08/23 03:27:57;;;;;;;8.37;6.13;;;;;;;;;;5055948;28;20446;-74
2022/08/23 03:30:24;;;;;;;9.40;5.00;;;;;;;;;;5055578;28;20516;-73
2022/08/23 03:32:52;;;;;;;6.57;5.70;;;;;;;;;;5056053;28;20525;-73
2022/08/23 03:35:19;;;;;;;6.00;5.50;;;;;;;;;;5056047;28;20496;-73
2022/08/23 03:37:46;;;;;;;7.03;5.43;;;;;;;;;;5055753;28;20540;-73
2022/08/23 03:40:15;;;;;;;6.30;5.07;;;;;;;;;;5056261;28;20540;-74
2022/08/23 03:42:42;;;;;;;8.30;5.30;;;;;;;;;;5055689;28;20445;-73
2022/08/23 03:45:10;;;;;;;10.60;5.83;;;;;;;;;;5055432;28;20998;-73
2022/08/23 03:47:38;;;;;;;16.10;6.80;;;;;;;;;;5055521;28;20509;-73
2022/08/23 03:50:05;;;;;;;6.13;5.20;;;;;;;;;;5054307;28;20474;-74
2022/08/23 03:52:33;;;;;;;5.67;5.20;;;;;;;;;;5055519;28;20499;-74
2022/08/23 03:55:00;;;;;;;6.43;5.93;;;;;;;;;;5055157;28;20455;-74
2022/08/23 03:57:28;;;;;;;6.80;6.10;;;;;;;;;;5055466;28;20540;-74
2022/08/23 03:59:58;;;;;;;6.87;5.53;;;;;;;;;;5055409;28;20939;-74
2022/08/23 04:02:26;;;;;;;6.50;5.83;;;;;;;;;;5055049;28;20453;-73
2022/08/23 04:04:53;;;;;;;7.73;5.60;;;;;;;;;;5055635;28;20833;-75
2022/08/23 04:07:20;;;;;;;7.50;5.47;;;;;;;;;;5054760;28;20479;-73
2022/08/23 04:09:47;;;;;;;9.30;6.27;;;;;;;;;;5055113;28;20477;-73
2022/08/23 04:12:15;;;;;;;6.40;5.80;;;;;;;;;;5055243;28;20437;-73
2022/08/23 04:14:44;;;;;;;5.90;5.23;;;;;;;;;;5054012;28;21022;-73
2022/08/23 04:17:11;;;;;;;7.10;5.43;;;;;;;;;;5055771;28;20566;-73
2022/08/23 04:19:38;;;;;;;7.07;6.37;;;;;;;;;;5054791;28;20821;-73
2022/08/23 04:22:06;;;;;;;6.77;5.80;;;;;;;;;;5054837;28;20532;-73
2022/08/23 04:24:33;;;;;;;6.73;5.80;;;;;;;;;;5054543;28;20533;-73
2022/08/23 04:27:00;;;;;;;6.00;5.40;;;;;;;;;;5055459;28;20524;-73
2022/08/23 04:29:28;;;;;;;10.10;6.83;;;;;;;;;;5054800;28;20790;-73
2022/08/23 04:31:56;;;;;;;16.07;7.20;;;;;;;;;;5053643;28;20458;-70
2022/08/23 04:34:24;;;;;;;10.43;5.60;;;;;;;;;;5054078;28;20452;-72
2022/08/23 04:36:51;;;;;;;13.20;6.10;;;;;;;;;;5053850;28;20442;-72
2022/08/23 04:39:18;;;;;;;8.97;5.80;;;;;;;;;;5054187;28;20443;-72
2022/08/23 04:44:30;;;;;;;9.57;5.77;;;;;;;;;;5054421;28;20776;-72
2022/08/23 04:46:59;;;;;;;6.20;5.60;;;;;;;;;;5054123;28;20528;-73
2022/08/23 04:49:26;;;;;;;9.40;6.23;;;;;;;;;;5054683;28;20449;-72
2022/08/23 04:51:53;;;;;;;11.27;5.80;;;;;;;;;;5054460;28;20569;-72
2022/08/23 04:54:21;;;;;;;6.23;5.30;;;;;;;;;;5054635;28;20804;-72
2022/08/23 04:56:48;;;;;;;7.70;6.20;;;;;;;;;;5054429;28;20461;-73
2022/08/23 04:59:16;;;;;;;14.07;6.00;;;;;;;;;;5054008;28;20433;-73
2022/08/23 05:01:43;;;;;;;8.67;5.50;;;;;;;;;;5054097;28;20472;-74
2022/08/23 05:04:13;;;;;;;5.67;4.90;;;;;;;;;;5054123;28;20532;-73
2022/08/23 05:06:40;;;;;;;9.07;5.17;;;;;;;;;;5053934;28;20449;-73
2022/08/23 05:09:07;;;;;;;12.70;6.33;;;;;;;;;;5053826;28;20532;-72
2022/08/23 05:11:34;;;;;;;7.77;5.70;;;;;;;;;;5053999;28;20473;-73
2022/08/23 05:14:02;;;;;;;6.17;5.67;;;;;;;;;;5053173;28;20495;-73
2022/08/23 05:16:29;;;;;;;9.37;6.67;;;;;;;;;;5052123;28;20865;-72
2022/08/23 05:18:56;;;;;;;6.47;5.80;;;;;;;;;;5053402;28;20541;-73
2022/08/23 05:21:25;;;;;;;9.63;5.83;;;;;;;;;;5053377;28;20452;-73
2022/08/23 05:23:52;;;;;;;6.37;5.00;;;;;;;;;;5053929;28;20465;-74
2022/08/23 05:26:20;;;;;;;8.67;5.60;;;;;;;;;;5053648;28;20859;-75
2022/08/23 05:28:48;;;;;;;6.50;5.17;;;;;;;;;;5053637;28;20466;-78
2022/08/23 05:31:17;;;;;;;6.10;5.33;;;;;;;;;;5053252;28;20462;-76
2022/08/23 05:33:45;;;;;;;6.67;5.80;;;;;;;;;;5053884;28;20939;-76
2022/08/23 05:36:13;;;;;;;6.77;5.87;;;;;;;;;;5053823;28;20452;-76
2022/08/23 05:38:42;;;;;;;8.47;6.50;;;;;;;;;;5053752;28;20508;-76
2022/08/23 05:41:10;;;;;;;6.00;5.50;;;;;;;;;;5053469;28;20450;-76
2022/08/23 05:43:37;;;;;;;8.20;5.90;;;;;;;;;;5053502;28;20951;-77
2022/08/23 05:46:05;;;;;;;7.83;6.00;;;;;;;;;;5053345;28;20461;-76
2022/08/23 05:48:35;;;;;;;8.17;5.70;;;;;;;;;;5053070;28;20825;-76
2022/08/23 05:51:10;;;;;;;5.97;5.27;;;;;;;;;;5053425;28;20469;-76
2022/08/23 05:53:37;;;;;;;7.80;5.60;;;;;;;;;;5053570;28;20837;-76
2022/08/23 05:56:13;;;;;;;7.23;6.13;;;;;;;;;;5053576;28;20492;-76
2022/08/23 05:58:40;;;;;;;15.27;6.90;;;;;;;;;;5053206;28;20468;-76
2022/08/23 06:01:08;;;;;;;6.60;5.17;;;;;;;;;;5053298;28;20447;-76
2022/08/23 06:03:35;;;;;;;9.30;6.17;;;;;;;;;;5053075;28;20499;-76
2022/08/23 06:06:03;;;;;;;11.20;5.73;;;;;;;;;;5052967;28;20450;-76
2022/08/23 06:08:30;;;;;;;5.27;4.80;;;;;;;;;;5053326;28;20521;-75
2022/08/23 06:11:01;;;;;;;8.77;5.10;;;;;;;;;;5053387;28;20627;-76
2022/08/23 06:13:30;;;;;;;6.80;4.30;;;;;;;;;;5053167;28;20989;-76
2022/08/23 06:15:58;;;;;;;7.50;4.87;;;;;;;;;;5052876;28;20449;-76
2022/08/23 06:18:26;;;;;;;7.13;4.37;;;;;;;;;;5052868;28;20544;-77
2022/08/23 06:21:01;;;;;;;9.03;4.40;;;;;;;;;;5053204;28;20481;-77
2022/08/23 06:23:29;;;;;;;9.73;5.20;;;;;;;;;;5053260;28;20442;-76
2022/08/23 06:25:56;;;;;;;7.70;4.60;;;;;;;;;;5052828;28;20525;-76
2022/08/23 06:28:24;;;;;;;5.10;4.07;;;;;;;;;;5053137;28;20487;-75
2022/08/23 06:30:54;;;;;;;9.10;5.07;;;;;;;;;;5052973;28;20510;-76
2022/08/23 06:33:21;;;;;;;12.30;4.20;;;;;;;;;;5053312;28;20435;-76
2022/08/23 06:35:49;;;;;;;9.50;4.10;;;;;;;;;;5052935;28;20449;-76
2022/08/23 06:38:17;;;;;;;7.23;4.13;;;;;;;;;;5056274;28;20443;-76
2022/08/23 06:40:44;;;;;;;4.73;4.23;;;;;;;;;;5056880;28;20530;-76
2022/08/23 06:43:11;;;;;;;13.23;4.40;;;;;;;;;;5056967;28;20475;-76
2022/08/23 06:45:38;;;;;;;8.17;4.90;;;;;;;;;;5056800;28;20488;-76
2022/08/23 06:48:09;;;;;;;5.13;3.77;;;;;;;;;;5056807;28;20521;-76
2022/08/23 06:50:36;;;;;;;9.03;4.43;;;;;;;;;;5056394;28;20474;-76
2022/08/23 06:53:03;;;;;;;10.40;3.90;;;;;;;;;;5056763;28;20472;-76
2022/08/23 06:55:30;;;;;;;9.60;4.23;;;;;;;;;;5056273;28;20918;-76
2022/08/23 06:57:58;;;;;;;11.93;4.40;;;;;;;;;;5057235;28;20479;-76
2022/08/23 07:00:25;;;;;;;5.70;4.17;;;;;;;;;;5056518;28;20534;-76
2022/08/23 07:02:52;;;;;;;5.57;4.10;;;;;;;;;;5056874;28;20440;-76
2022/08/23 07:05:21;;;;;;;7.63;4.70;;;;;;;;;;5056391;28;20437;-76
2022/08/23 07:07:48;;;;;;;7.20;4.10;;;;;;;;;;5056123;28;20445;-77
2022/08/23 07:10:15;;;;;;;5.40;3.70;;;;;;;;;;5056395;28;20476;-76
2022/08/23 07:12:43;;;;;;;5.83;4.00;;;;;;;;;;5055902;28;21095;-77
2022/08/23 07:15:11;;;;;;;7.20;4.30;;;;;;;;;;5056702;28;20520;-77
2022/08/23 07:17:38;;;;;;;8.57;4.40;;;;;;;;;;5056135;28;21019;-76
2022/08/23 07:20:05;;;;;;;6.30;4.20;;;;;;;;;;5056498;28;20441;-76
2022/08/23 07:22:34;;;;;;;9.97;4.80;;;;;;;;;;5055784;28;20445;-76
2022/08/23 07:25:02;;;;;;;8.97;4.30;;;;;;;;;;5056146;28;20449;-75
2022/08/23 07:27:30;;;;;;;11.63;4.20;;;;;;;;;;5055765;28;20809;-75
2022/08/23 07:29:57;;;;;;;4.63;4.13;;;;;;;;;;5055793;28;20451;-76
2022/08/23 07:32:25;;;;;;;12.63;5.90;;;;;;;;;;5055501;28;21042;-75
2022/08/23 07:34:52;;;;;;;11.07;5.23;;;;;;;;;;5056011;28;20449;-76
2022/08/23 07:37:19;;;;;;;6.07;4.30;;;;;;;;;;5055859;28;20485;-76
2022/08/23 07:39:48;;;;;;;6.67;3.43;;;;;;;;;;5055895;28;20437;-76
2022/08/23 07:42:16;;;;;;;8.90;4.70;;;;;;;;;;5055441;28;20532;-76
2022/08/23 07:44:43;;;;;;;7.60;4.17;;;;;;;;;;5055467;28;20969;-76
2022/08/23 07:47:11;;;;;;;6.20;3.93;;;;;;;;;;5055338;28;20449;-76
2022/08/23 07:49:38;;;;;;;6.80;4.00;;;;;;;;;;5055673;28;20521;-76
2022/08/23 07:52:06;;;;;;;8.43;4.47;;;;;;;;;;5055181;28;20483;-76
2022/08/23 07:54:33;;;;;;;9.73;3.77;;;;;;;;;;5055645;28;20469;-76
2022/08/23 07:57:01;;;;;;;9.17;4.03;;;;;;;;;;5055755;28;20859;-76
2022/08/23 07:59:29;;;;;;;5.67;3.90;;;;;;;;;;5055262;28;20986;-75
2022/08/23 08:01:56;;;;;;;8.67;3.60;;;;;;;;;;5055056;28;20481;-76
2022/08/23 08:04:23;;;;;;;9.17;3.60;;;;;;;;;;5055458;28;20793;-76
2022/08/23 08:06:51;;;;;;;5.73;4.27;;;;;;;;;;5055257;28;20496;-76
2022/08/23 08:09:19;;;;;;;4.63;3.70;;;;;;;;;;5055347;28;20484;-76
2022/08/23 08:11:47;;;;;;;3.87;3.20;;;;;;;;;;5055314;28;20478;-76
2022/08/23 08:14:17;;;;;;;10.90;3.90;;;;;;;;;;5054675;28;20450;-76
2022/08/23 08:16:45;;;;;;;5.23;3.73;;;;;;;;;;5054976;28;20891;-74
2022/08/23 08:19:14;;;;;;;9.40;4.00;;;;;;;;;;5054823;28;20442;-76
2022/08/23 08:21:44;;;;;;;4.43;3.50;;;;;;;;;;5055001;28;20816;-76
2022/08/23 08:24:12;;;;;;;4.03;3.63;;;;;;;;;;5055041;28;20496;-76
2022/08/23 08:26:40;;;;;;;5.53;3.30;;;;;;;;;;5054965;28;20866;-76
2022/08/23 08:29:09;;;;;;;4.27;3.37;;;;;;;;;;5054686;28;21000;-76
2022/08/23 08:31:38;;;;;;;4.07;3.77;;;;;;;;;;5054775;28;20513;-76
2022/08/23 08:34:06;;;;;;;11.00;3.63;;;;;;;;;;5054545;28;20443;-76
2022/08/23 08:36:35;;;;;;;4.00;3.60;;;;;;;;;;5054875;28;20807;-76
2022/08/23 08:39:03;;;;;;;3.93;3.17;;;;;;;;;;5054840;28;20444;-75
2022/08/23 08:41:39;;;;;;;5.73;3.97;;;;;;;;;;5054282;28;20443;-75
2022/08/23 08:44:10;;;;;;;6.57;3.40;;;;;;;;;;5055177;28;20426;-75
2022/08/23 08:46:43;;;;;;;5.63;3.10;;;;;;;;;;5055045;28;20453;-75
2022/08/23 08:49:14;;;;;;;6.90;3.57;;;;;;;;;;5055215;28;20486;-76
2022/08/23 08:51:46;;;;;;;7.73;3.60;;;;;;;;;;5054074;28;20569;-76
2022/08/23 08:54:14;;;;;;;11.70;4.10;;;;;;;;;;5054250;28;20439;-75
2022/08/23 08:56:41;;;;;;;5.00;3.67;;;;;;;;;;5054519;28;20448;-74
2022/08/23 08:59:14;;;;;;;6.93;3.37;;;;;;;;;;5054152;28;20442;-78
2022/08/23 09:01:43;;;;;;;7.03;3.20;;;;;;;;;;5054122;28;20765;-76
2022/08/23 09:04:10;;;;;;;5.97;3.30;;;;;;;;;;5053982;28;20530;-77
2022/08/23 09:06:44;;;;;;;5.50;3.07;;;;;;;;;;5054029;28;20535;-77
2022/08/23 09:09:22;;;;;;;6.83;3.70;;;;;;;;;;5054615;28;20877;-77
2022/08/23 09:11:57;;;;;;;3.67;3.37;;;;;;;;;;5053821;28;21045;-76
2022/08/23 09:14:39;;;;;;;4.90;3.63;;;;;;;;;;5054524;28;20440;-77
2022/08/23 09:17:16;;;;;;;7.97;3.30;;;;;;;;;;5054487;28;20485;-77
2022/08/23 09:19:45;;;;;;;4.93;3.50;;;;;;;;;;5054091;28;20440;-77
2022/08/23 09:22:13;;;;;;;8.43;4.00;;;;;;;;;;5053873;28;20526;-77
2022/08/23 09:24:40;;;;;;;7.07;3.93;;;;;;;;;;5054603;28;20419;-77
2022/08/23 09:27:09;;;;;;;6.63;4.00;;;;;;;;;;5053789;28;20527;-77
2022/08/23 09:29:37;;;;;;;5.23;3.50;;;;;;;;;;5054109;28;20462;-77
2022/08/23 09:32:05;;;;;;;4.00;3.47;;;;;;;;;;5054383;28;20482;-77
2022/08/23 09:34:42;;;;;;;5.17;3.80;;;;;;;;;;5053717;28;20545;-75
2022/08/23 09:37:14;;;;;;;9.83;3.33;;;;;;;;;;5054036;28;20467;-75
2022/08/23 09:39:43;;;;;;;6.23;3.50;;;;;;;;;;5054002;28;20432;-76
2022/08/23 09:42:26;;;;;;;10.37;4.40;;;;;;;;;;5053428;28;20484;-76
2022/08/23 09:44:55;;;;;;;7.10;3.83;;;;;;;;;;5053573;28;20433;-76
2022/08/23 09:47:30;;;;;;;4.97;3.70;;;;;;;;;;5052974;28;20836;-75
2022/08/23 09:50:07;;;;;;;4.63;3.47;;;;;;;;;;5053734;28;20502;-77
2022/08/23 09:52:36;;;;;;;9.70;3.27;;;;;;;;;;5053739;28;20476;-76
2022/08/23 09:55:05;;;;;;;4.23;3.70;;;;;;;;;;5053409;28;20471;-76
2022/08/23 09:57:33;;;;;;;4.83;3.43;;;;;;;;;;5053353;28;20527;-76
2022/08/23 10:00:02;;;;;;;6.50;3.43;;;;;;;;;;5053642;28;20623;-77
2022/08/23 10:02:31;;;;;;;5.97;3.77;;;;;;;;;;5053355;28;20448;-76
2022/08/23 10:05:02;;;;;;;4.03;3.57;;;;;;;;;;5054018;28;20470;-76
2022/08/23 10:07:40;;;;;;;6.80;3.90;;;;;;;;;;5053709;28;20433;-77
2022/08/23 10:10:14;;;;;;;5.50;4.53;;;;;;;;;;5053149;28;20791;-76
2022/08/23 10:12:42;;;;;;;7.73;4.70;;;;;;;;;;5054432;28;20515;-75
2022/08/23 10:15:09;;;;;;;10.27;4.20;;;;;;;;;;5057047;28;20450;-75
2022/08/23 10:17:40;;;;;;;6.70;3.77;;;;;;;;;;5057041;28;20462;-75
2022/08/23 10:20:15;;;;;;;9.80;4.30;;;;;;;;;;5057402;28;20432;-76
2022/08/23 10:22:45;;;;;;;6.47;3.10;;;;;;;;;;5057415;28;20520;-75
2022/08/23 10:25:16;;;;;;;5.07;3.27;;;;;;;;;;5057754;28;20532;-76
2022/08/23 10:30:37;;;;;;;5.17;4.00;;;;;;;;;;5056957;28;20394;-76
2022/08/23 10:33:08;;;;;;;7.57;3.90;;;;;;;;;;5057566;28;20551;-76
2022/08/23 10:35:39;;;;;;;3.60;3.00;;;;;;;;;;5057637;28;21029;-76
2022/08/23 10:38:12;;;;;;;7.80;3.33;;;;;;;;;;5056655;28;20933;-76
2022/08/23 10:40:43;;;;;;;6.57;3.83;;;;;;;;;;5057006;28;20429;-76
2022/08/23 10:43:15;;;;;;;6.00;4.30;;;;;;;;;;5056774;28;20419;-76
2022/08/23 10:45:44;;;;;;;6.53;3.77;;;;;;;;;;5057163;28;20430;-76
2022/08/23 10:48:20;;;;;;;7.47;3.80;;;;;;;;;;5056790;28;20505;-76
2022/08/23 10:50:52;;;;;;;5.47;3.60;;;;;;;;;;5057023;28;20395;-76
2022/08/23 10:53:21;;;;;;;5.10;4.50;;;;;;;;;;5056707;28;20543;-75
2022/08/23 10:56:03;;;;;;;6.63;3.70;;;;;;;;;;5057126;28;20805;-77
2022/08/23 10:58:33;;;;;;;4.63;4.23;;;;;;;;;;5056411;28;20449;-75
2022/08/23 11:01:01;;;;;;;5.13;3.90;;;;;;;;;;5056703;28;20466;-76
2022/08/23 11:03:29;;;;;;;4.10;3.70;;;;;;;;;;5056197;28;20901;-77
2022/08/23 11:06:15;;;;;;;5.40;3.67;;;;;;;;;;5056469;28;20492;-76
2022/08/23 11:08:45;;;;;;;6.93;4.60;;;;;;;;;;5056323;28;20537;-76
2022/08/23 11:11:27;;;;;;;9.30;3.83;;;;;;;;;;5056338;28;20497;-75
2022/08/23 11:13:54;;;;;;;11.47;4.20;;;;;;;;;;5055281;28;20491;-75
2022/08/23 11:16:25;;;;;;;5.73;3.80;;;;;;;;;;5056363;28;20422;-77
2022/08/23 11:18:52;;;;;;;3.60;3.27;;;;;;;;;;5055905;28;20521;-77
2022/08/23 11:21:39;;;;;;;6.30;4.13;;;;;;;;;;5055963;28;20414;-78
2022/08/23 11:24:25;;;;;;;5.30;4.00;;;;;;;;;;5055250;28;20422;-77
2022/08/23 11:27:04;;;;;;;8.10;4.50;;;;;;;;;;5056332;28;20496;-77
2022/08/23 11:29:33;;;;;;;7.57;4.40;;;;;;;;;;5056291;28;20446;-78
2022/08/23 11:32:04;;;;;;;4.20;3.43;;;;;;;;;;5056328;28;20476;-77
2022/08/23 11:34:36;;;;;;;5.57;3.93;;;;;;;;;;5056111;28;20462;-78
2022/08/23 11:37:22;;;;;;;5.60;4.27;;;;;;;;;;5055951;28;20975;-78
2022/08/23 11:42:28;;;;;;;5.20;3.73;;;;;;;;;;5014742;28;20441;-64
2022/08/23 11:44:55;;;;;;;6.67;3.60;;;;;;;;;;5015641;28;20907;-64
2022/08/23 11:47:28;;;;;;;9.70;4.30;;;;;;;;;;5015876;28;20537;-64
2022/08/23 11:50:03;;;;;;;4.73;3.93;;;;;;;;;;5015881;28;20892;-64
2022/08/23 11:52:37;;;;;;;4.53;3.93;;;;;;;;;;5015546;28;21010;-64
2022/08/23 11:55:16;;;;;;;6.27;4.20;;;;;;;;;;5016139;28;20535;-64
2022/08/23 11:57:53;;;;;;;6.50;4.00;;;;;;;;;;5015787;28;20427;-64
2022/08/23 12:00:22;;;;;;;3.93;3.20;;;;;;;;;;5015307;28;20524;-64
2022/08/23 12:03:00;;;;;;;8.33;3.73;;;;;;;;;;5015575;28;20431;-64
2022/08/23 12:05:41;;;;;;;5.57;4.37;;;;;;;;;;5015580;28;20404;-64
2022/08/23 12:08:27;;;;;;;4.93;3.90;;;;;;;;;;5015680;28;20714;-64
2022/08/23 12:11:02;;;;;;;6.00;3.67;;;;;;;;;;5015548;28;20536;-64
2022/08/23 12:13:45;;;;;;;6.73;4.27;;;;;;;;;;5015348;28;20483;-64
2022/08/23 12:16:27;;;;;;;5.17;4.00;;;;;;;;;;5015428;28;20436;-64
2022/08/23 12:18:56;;;;;;;10.17;4.03;;;;;;;;;;5015126;28;20411;-64
2022/08/23 12:21:25;;;;;;;5.80;3.47;;;;;;;;;;5015236;28;20456;-65
2022/08/23 12:23:54;;;;;;;3.97;3.57;;;;;;;;;;5015959;28;20509;-64
2022/08/23 12:26:25;;;;;;;4.53;3.27;;;;;;;;;;5015102;28;20449;-64
2022/08/23 12:28:57;;;;;;;3.63;3.27;;;;;;;;;;5015461;28;20756;-64
2022/08/23 12:31:27;;;;;;;9.33;4.17;;;;;;;;;;5015036;28;20424;-64
2022/08/23 12:34:08;;;;;;;4.77;3.83;;;;;;;;;;5014619;28;20469;-64
2022/08/23 12:36:39;;;;;;;5.33;3.47;;;;;;;;;;5014055;28;20405;-64
2022/08/23 12:39:08;;;;;;;10.50;4.00;;;;;;;;;;5014892;28;20506;-64
2022/08/23 12:41:49;;;;;;;4.83;3.93;;;;;;;;;;5014703;28;20883;-64
2022/08/23 12:44:20;;;;;;;8.80;3.67;;;;;;;;;;5015561;28;20556;-64
2022/08/23 12:46:48;;;;;;;4.83;3.77;;;;;;;;;;5014821;28;20418;-64
2022/08/23 12:49:23;;;;;;;5.20;3.03;;;;;;;;;;5015313;28;20954;-64
2022/08/23 12:51:51;;;;;;;7.43;3.80;;;;;;;;;;5014795;28;20500;-64
2022/08/23 12:54:20;;;;;;;8.90;4.00;;;;;;;;;;5015153;28;20614;-64
2022/08/23 12:56:48;;;;;;;3.83;3.53;;;;;;;;;;5014219;28;20504;-66
2022/08/23 12:59:29;;;;;;;4.03;3.00;;;;;;;;;;5014315;28;20956;-64
2022/08/23 13:01:57;;;;;;;6.00;4.07;;;;;;;;;;5014583;28;20442;-63
2022/08/23 13:04:24;;;;;;;4.50;3.37;;;;;;;;;;5014576;28;20514;-63
2022/08/23 13:06:54;;;;;;;8.63;3.40;;;;;;;;;;5014019;28;20516;-63
2022/08/23 13:09:23;;;;;;;6.23;3.77;;;;;;;;;;5015292;28;20487;-63
2022/08/23 13:11:51;;;;;;;4.90;3.50;;;;;;;;;;5014417;28;20520;-63
2022/08/23 13:14:25;;;;;;;3.80;3.40;;;;;;;;;;5014287;28;20992;-64
2022/08/23 13:16:54;;;;;;;3.73;3.20;;;;;;;;;;5013878;28;20505;-63
2022/08/23 13:19:25;;;;;;;3.60;3.30;;;;;;;;;;5014212;28;20455;-63
2022/08/23 13:22:07;;;;;;;4.97;3.10;;;;;;;;;;5013229;28;20521;-63
2022/08/23 13:24:35;;;;;;;6.30;3.90;;;;;;;;;;5014188;28;20534;-64
2022/08/23 13:27:12;;;;;;;5.00;3.60;;;;;;;;;;5013833;28;20450;-64
2022/08/23 13:29:49;;;;;;;3.83;3.53;;;;;;;;;;5014917;28;20456;-63
2022/08/23 13:32:27;;;;;;;4.27;3.80;;;;;;;;;;5013995;28;20425;-63
2022/08/23 13:34:55;;;;;;;6.90;3.80;;;;;;;;;;5013582;28;20464;-63
2022/08/23 13:37:25;;;;;;;4.50;3.70;;;;;;;;;;5013681;28;20529;-64
2022/08/23 13:39:54;;;;;;;5.83;3.57;;;;;;;;;;5013584;28;20531;-64
2022/08/23 13:42:32;;;;;;;5.80;3.20;;;;;;;;;;5013037;28;20446;-65
2022/08/23 13:45:06;;;;;;;9.60;3.80;;;;;;;;;;5013398;28;20924;-66
2022/08/23 13:47:35;;;;;;;4.53;3.37;;;;;;;;;;5013046;28;20433;-66
2022/08/23 13:50:02;;;;;;;4.43;3.27;;;;;;;;;;5013576;28;20520;-66
2022/08/23 13:52:30;;;;;;;4.30;3.63;;;;;;;;;;5013039;28;20445;-67
2022/08/23 13:54:58;;;;;;;3.53;3.23;;;;;;;;;;5013775;28;20467;-68
2022/08/23 13:57:25;;;;;;;3.83;3.13;;;;;;;;;;5012974;28;20545;-67
2022/08/23 13:59:55;;;;;;;6.43;5.20;;;;;;;;;;5013324;28;20552;-67
2022/08/23 14:02:23;;;;;;;7.97;4.00;;;;;;;;;;5013329;28;20537;-67
2022/08/23 14:04:52;;;;;;;4.97;3.87;;;;;;;;;;5013308;28;20517;-68
2022/08/23 14:07:19;;;;;;;4.70;3.23;;;;;;;;;;5013524;28;20451;-67
2022/08/23 14:09:47;;;;;;;6.97;3.43;;;;;;;;;;5013542;28;20841;-68
2022/08/23 14:12:15;;;;;;;4.63;3.20;;;;;;;;;;5013026;28;20932;-68
2022/08/23 14:14:43;;;;;;;4.43;4.03;;;;;;;;;;5013676;28;20483;-73
2022/08/23 14:17:10;;;;;;;9.53;3.80;;;;;;;;;;5013383;28;20535;-66
2022/08/23 14:19:38;;;;;;;4.23;3.77;;;;;;;;;;5013031;28;20446;-65
2022/08/23 14:22:06;;;;;;;4.97;3.80;;;;;;;;;;5012956;28;20527;-65
2022/08/23 14:24:34;;;;;;;7.70;3.77;;;;;;;;;;5013025;28;20501;-66
2022/08/23 14:27:01;;;;;;;4.00;3.60;;;;;;;;;;5013330;28;20442;-64
2022/08/23 14:29:28;;;;;;;4.80;4.40;;;;;;;;;;5013419;28;20453;-64
2022/08/23 14:31:56;;;;;;;5.10;3.90;;;;;;;;;;5013159;28;20440;-64
2022/08/23 14:34:24;;;;;;;5.13;4.00;;;;;;;;;;5013247;28;20516;-64
2022/08/23 14:36:52;;;;;;;3.97;3.63;;;;;;;;;;5013115;28;20507;-64
2022/08/23 14:39:21;;;;;;;4.47;4.00;;;;;;;;;;5013311;28;20447;-64
2022/08/23 14:41:48;;;;;;;3.70;3.30;;;;;;;;;;5012973;28;21118;-64
2022/08/23 14:44:16;;;;;;;3.97;3.67;;;;;;;;;;5012995;28;20943;-65
2022/08/23 14:46:43;;;;;;;5.13;3.70;;;;;;;;;;5013622;28;20449;-65
2022/08/23 14:49:10;;;;;;;5.43;3.67;;;;;;;;;;5013169;28;20533;-65
2022/08/23 14:51:40;;;;;;;11.47;3.90;;;;;;;;;;5012901;28;20472;-65
2022/08/23 14:54:08;;;;;;;6.80;4.10;;;;;;;;;;5013529;28;20483;-64
2022/08/23 14:56:37;;;;;;;4.60;3.27;;;;;;;;;;5013116;28;20453;-64
2022/08/23 14:59:04;;;;;;;5.37;3.60;;;;;;;;;;5014764;28;20481;-64
2022/08/23 15:01:32;;;;;;;8.60;3.50;;;;;;;;;;5016492;28;20449;-63
2022/08/23 15:04:00;;;;;;;5.93;3.83;;;;;;;;;;5016605;28;20465;-63
2022/08/23 15:06:27;;;;;;;3.90;3.50;;;;;;;;;;5016259;28;20451;-63
2022/08/23 15:08:55;;;;;;;5.33;3.67;;;;;;;;;;5016603;28;20450;-63
2022/08/23 15:11:22;;;;;;;6.07;3.90;;;;;;;;;;5016181;28;20874;-63
2022/08/23 15:13:51;;;;;;;3.70;3.40;;;;;;;;;;5016298;28;20489;-63